Time;durP1;ratioP1;P1;durP2;ratioP2;P2;SDS_P1;SDS_P2;PMS_P1;PMS_P2;Temp;Humidity;BMP_temperature;BMP_pressure;BME280_temperature;BME280_humidity;BME280_pressure;Samples;Min_cycle;Max_cycle;Signal;HPM_P1;HPM_P2
2022/12/21 00:00:10;;;;;;;17.93;9.03;;;;;;;;;;10409595;28;20274;-61
2022/12/21 00:05:13;;;;;;;14.30;7.50;;;;;;;;;;10408455;28;21063;-61
2022/12/21 00:10:13;;;;;;;20.90;10.80;;;;;;;;;;10408329;28;20314;-58
2022/12/21 00:15:13;;;;;;;22.37;11.30;;;;;;;;;;10409031;28;20439;-60
2022/12/21 00:20:14;;;;;;;24.30;11.20;;;;;;;;;;10408178;28;20616;-59
2022/12/21 00:25:14;;;;;;;22.03;10.43;;;;;;;;;;10408650;28;20216;-60
2022/12/21 00:30:14;;;;;;;18.03;8.90;;;;;;;;;;10408227;28;20457;-61
2022/12/21 00:35:14;;;;;;;17.00;9.03;;;;;;;;;;10407167;28;20619;-60
2022/12/21 00:40:14;;;;;;;22.47;11.40;;;;;;;;;;10390038;28;20299;-61
2022/12/21 00:45:15;;;;;;;17.10;7.37;;;;;;;;;;10406412;28;20640;-58
2022/12/21 00:50:15;;;;;;;14.57;7.43;;;;;;;;;;10407447;28;20980;-60
2022/12/21 00:55:15;;;;;;;18.73;10.27;;;;;;;;;;10406339;28;20222;-58
2022/12/21 01:00:17;;;;;;;18.87;9.63;;;;;;;;;;10406929;28;20251;-57
2022/12/21 01:05:18;;;;;;;17.60;10.03;;;;;;;;;;10406700;28;20235;-59
2022/12/21 01:10:19;;;;;;;16.97;9.13;;;;;;;;;;10406372;28;20661;-56
2022/12/21 01:15:19;;;;;;;17.17;7.93;;;;;;;;;;10405520;28;20197;-54
2022/12/21 01:20:19;;;;;;;17.07;9.60;;;;;;;;;;10406222;28;20212;-57
2022/12/21 01:25:19;;;;;;;17.03;8.77;;;;;;;;;;10406570;28;20670;-60
2022/12/21 01:30:20;;;;;;;21.27;10.07;;;;;;;;;;10388273;28;20279;-59
2022/12/21 01:35:20;;;;;;;16.60;8.50;;;;;;;;;;10388196;28;20439;-60
2022/12/21 01:40:20;;;;;;;21.50;10.83;;;;;;;;;;10406101;28;20220;-58
2022/12/21 01:45:22;;;;;;;14.83;8.17;;;;;;;;;;10388072;28;20239;-57
2022/12/21 01:50:41;;;;;;;21.20;11.17;;;;;;;;;;10406210;28;20240;-59
2022/12/21 01:55:43;;;;;;;20.63;10.33;;;;;;;;;;10387249;28;20189;-60
2022/12/21 02:00:44;;;;;;;24.33;12.23;;;;;;;;;;10403854;28;20328;-57
2022/12/21 02:05:51;;;;;;;26.63;12.43;;;;;;;;;;10387637;28;20569;-60
2022/12/21 02:10:53;;;;;;;27.40;15.43;;;;;;;;;;10405577;28;20240;-59
2022/12/21 02:15:58;;;;;;;29.67;15.60;;;;;;;;;;10404612;28;20181;-61
2022/12/21 02:21:17;;;;;;;18.37;9.50;;;;;;;;;;10405641;28;20308;-60
2022/12/21 02:26:36;;;;;;;21.17;10.00;;;;;;;;;;10406509;28;20184;-58
2022/12/21 02:31:36;;;;;;;26.40;12.97;;;;;;;;;;10412858;28;20216;-57
2022/12/21 02:36:56;;;;;;;24.67;12.40;;;;;;;;;;10394970;28;20259;-58
2022/12/21 02:41:56;;;;;;;18.27;8.17;;;;;;;;;;10412121;28;20219;-58
2022/12/21 02:47:03;;;;;;;22.10;10.17;;;;;;;;;;10411928;28;20208;-52
2022/12/21 02:52:12;;;;;;;20.43;11.83;;;;;;;;;;10394651;28;20213;-56
2022/12/21 02:57:12;;;;;;;26.37;13.47;;;;;;;;;;10410806;28;20556;-55
2022/12/21 03:02:22;;;;;;;23.13;12.10;;;;;;;;;;10411464;28;20987;-57
2022/12/21 03:07:23;;;;;;;18.80;9.80;;;;;;;;;;10393087;28;20219;-57
2022/12/21 03:12:30;;;;;;;22.30;11.80;;;;;;;;;;10393466;28;20263;-58
2022/12/21 03:17:54;;;;;;;27.07;14.13;;;;;;;;;;10393060;28;20701;-56
2022/12/21 03:23:08;;;;;;;20.33;9.23;;;;;;;;;;10393483;28;20290;-58
2022/12/21 03:28:13;;;;;;;23.80;12.40;;;;;;;;;;10410013;28;20177;-59
2022/12/21 03:33:15;;;;;;;17.87;9.80;;;;;;;;;;10410647;28;20517;-59
2022/12/21 03:38:19;;;;;;;26.70;14.07;;;;;;;;;;10409636;28;21048;-60
2022/12/21 03:43:23;;;;;;;29.13;14.97;;;;;;;;;;10409652;28;20278;-56
2022/12/21 03:48:32;;;;;;;20.50;11.30;;;;;;;;;;10409920;28;20244;-58
2022/12/21 03:53:50;;;;;;;19.23;10.47;;;;;;;;;;10409118;28;20192;-57
2022/12/21 03:58:50;;;;;;;21.13;12.10;;;;;;;;;;10408308;28;20200;-60
2022/12/21 04:03:54;;;;;;;21.97;11.37;;;;;;;;;;10405589;28;20569;-58
2022/12/21 04:08:54;;;;;;;20.93;11.13;;;;;;;;;;10401502;28;21020;-59
2022/12/21 04:13:54;;;;;;;23.10;8.90;;;;;;;;;;10401985;28;20199;-59
2022/12/21 04:29:32;;;;;;;25.00;12.13;;;;;;;;;;10401900;28;20196;-57
2022/12/21 04:34:32;;;;;;;31.73;14.57;;;;;;;;;;10401127;28;20194;-59
2022/12/21 04:39:32;;;;;;;34.33;15.07;;;;;;;;;;10401243;28;20718;-59
2022/12/21 04:44:32;;;;;;;26.30;12.63;;;;;;;;;;10400670;28;20621;-59
2022/12/21 04:49:33;;;;;;;26.10;12.87;;;;;;;;;;10400800;28;20215;-61
2022/12/21 04:54:33;;;;;;;33.67;16.20;;;;;;;;;;10399467;28;20677;-59
2022/12/21 04:59:33;;;;;;;30.93;14.60;;;;;;;;;;10400864;28;20212;-60
2022/12/21 05:04:33;;;;;;;25.87;11.63;;;;;;;;;;10406169;28;20482;-60
2022/12/21 05:09:33;;;;;;;28.40;13.10;;;;;;;;;;10406612;28;20232;-61
2022/12/21 05:14:33;;;;;;;31.67;15.13;;;;;;;;;;10407377;28;20199;-61
2022/12/21 05:19:34;;;;;;;35.90;16.20;;;;;;;;;;10407455;28;20323;-60
2022/12/21 05:24:34;;;;;;;31.37;15.60;;;;;;;;;;10406175;28;20592;-61
2022/12/21 05:29:34;;;;;;;30.33;14.27;;;;;;;;;;10407203;28;20231;-60
2022/12/21 05:34:34;;;;;;;29.10;13.37;;;;;;;;;;10406091;28;20189;-62
2022/12/21 05:39:34;;;;;;;37.23;18.87;;;;;;;;;;10406570;28;20828;-61
2022/12/21 05:44:34;;;;;;;23.93;12.43;;;;;;;;;;10405882;28;20596;-60
2022/12/21 05:49:35;;;;;;;25.03;12.13;;;;;;;;;;10406643;28;20239;-61
2022/12/21 05:54:36;;;;;;;29.97;13.40;;;;;;;;;;10405923;28;20227;-62
2022/12/21 05:59:36;;;;;;;34.60;16.20;;;;;;;;;;10406557;28;20703;-61
2022/12/21 06:04:36;;;;;;;34.60;16.47;;;;;;;;;;10412854;28;20235;-61
2022/12/21 06:09:36;;;;;;;36.23;17.47;;;;;;;;;;10413625;28;20278;-62
2022/12/21 06:14:36;;;;;;;33.17;15.27;;;;;;;;;;10414008;28;20220;-62
2022/12/21 06:19:37;;;;;;;37.90;17.47;;;;;;;;;;10412418;28;20251;-60
2022/12/21 06:24:37;;;;;;;32.50;17.30;;;;;;;;;;10413340;28;20628;-62
2022/12/21 06:29:37;;;;;;;34.93;16.63;;;;;;;;;;10413699;28;20205;-61
2022/12/21 06:34:37;;;;;;;34.13;15.40;;;;;;;;;;10413046;28;20246;-61
2022/12/21 06:39:48;;;;;;;26.77;10.93;;;;;;;;;;10413490;28;20311;-61
2022/12/21 06:44:48;;;;;;;21.47;9.87;;;;;;;;;;10412600;28;20224;-61
2022/12/21 06:49:49;;;;;;;28.10;12.37;;;;;;;;;;10412954;28;20324;-60
2022/12/21 06:54:49;;;;;;;25.97;13.83;;;;;;;;;;10411988;28;20592;-59
2022/12/21 06:59:49;;;;;;;24.23;13.70;;;;;;;;;;10412352;28;20211;-58
2022/12/21 07:04:52;;;;;;;25.23;13.40;;;;;;;;;;10411176;28;20227;-59
2022/12/21 07:09:52;;;;;;;25.87;13.47;;;;;;;;;;10403503;28;20311;-60
2022/12/21 07:14:52;;;;;;;26.37;13.17;;;;;;;;;;10410536;28;20246;-60
2022/12/21 07:19:53;;;;;;;26.20;14.13;;;;;;;;;;10411619;28;20204;-59
2022/12/21 07:24:53;;;;;;;23.40;12.73;;;;;;;;;;10411347;28;20192;-60
2022/12/21 07:29:54;;;;;;;23.40;12.07;;;;;;;;;;10411728;28;20509;-62
2022/12/21 07:34:54;;;;;;;22.17;11.50;;;;;;;;;;10410491;28;20193;-60
2022/12/21 07:39:54;;;;;;;23.90;13.57;;;;;;;;;;10411603;28;20291;-63
2022/12/21 07:44:54;;;;;;;16.30;8.23;;;;;;;;;;10411198;28;20180;-61
2022/12/21 07:50:06;;;;;;;23.47;12.70;;;;;;;;;;10378180;28;20280;-61
2022/12/21 07:55:06;;;;;;;19.10;10.20;;;;;;;;;;10407303;28;20674;-59
2022/12/21 08:00:09;;;;;;;24.40;11.97;;;;;;;;;;10405673;28;20219;-61
2022/12/21 08:05:13;;;;;;;26.20;13.10;;;;;;;;;;10407154;28;20272;-60
2022/12/21 08:10:13;;;;;;;27.60;12.13;;;;;;;;;;10405343;28;20240;-61
2022/12/21 08:15:13;;;;;;;16.67;10.43;;;;;;;;;;10406017;28;20279;-61
2022/12/21 08:20:14;;;;;;;24.33;12.70;;;;;;;;;;10405028;28;20767;-61
2022/12/21 08:25:14;;;;;;;24.23;12.70;;;;;;;;;;10397568;28;20299;-59
2022/12/21 08:30:15;;;;;;;23.13;12.13;;;;;;;;;;10373703;28;20223;-61
2022/12/21 08:35:15;;;;;;;26.47;13.93;;;;;;;;;;10387766;28;20446;-61
2022/12/21 08:40:16;;;;;;;22.07;10.97;;;;;;;;;;10390220;28;20213;-60
2022/12/21 08:45:16;;;;;;;20.13;12.13;;;;;;;;;;10375489;28;20196;-59
2022/12/21 08:50:16;;;;;;;22.33;10.53;;;;;;;;;;10389224;28;20670;-59
2022/12/21 08:55:16;;;;;;;16.57;9.23;;;;;;;;;;10362569;28;20197;-58
2022/12/21 09:00:16;;;;;;;22.17;10.43;;;;;;;;;;10358342;28;20482;-60
2022/12/21 09:05:17;;;;;;;16.27;9.10;;;;;;;;;;10357511;28;20667;-59
2022/12/21 09:10:17;;;;;;;18.00;10.83;;;;;;;;;;10389980;28;20990;-61
2022/12/21 09:15:17;;;;;;;20.60;10.37;;;;;;;;;;10396921;28;20212;-60
2022/12/21 09:20:17;;;;;;;15.53;8.63;;;;;;;;;;10396814;28;20316;-59
2022/12/21 09:25:17;;;;;;;16.17;8.10;;;;;;;;;;10387066;28;20196;-58
2022/12/21 09:30:18;;;;;;;15.00;8.23;;;;;;;;;;10387925;28;20215;-60
2022/12/21 09:35:18;;;;;;;10.97;6.20;;;;;;;;;;10398362;28;20713;-58
2022/12/21 09:40:19;;;;;;;18.53;14.13;;;;;;;;;;10396381;28;20228;-59
2022/12/21 09:45:26;;;;;;;11.57;7.97;;;;;;;;;;10396502;28;20199;-59
2022/12/21 09:50:28;;;;;;;6.13;3.40;;;;;;;;;;10398238;28;21015;-58
2022/12/21 09:55:30;;;;;;;9.63;5.93;;;;;;;;;;10393978;28;20540;-59
2022/12/21 10:00:33;;;;;;;19.33;12.07;;;;;;;;;;10397609;28;20280;-60
2022/12/21 10:05:39;;;;;;;8.83;5.20;;;;;;;;;;10397476;28;20985;-60
2022/12/21 10:10:41;;;;;;;7.73;4.83;;;;;;;;;;10396367;28;20248;-60
2022/12/21 10:15:46;;;;;;;9.27;6.37;;;;;;;;;;10397395;28;20193;-59
2022/12/21 10:20:57;;;;;;;6.67;4.43;;;;;;;;;;10397795;28;20221;-62
2022/12/21 10:25:58;;;;;;;10.10;5.53;;;;;;;;;;10394437;28;20327;-61
2022/12/21 10:31:09;;;;;;;6.70;4.40;;;;;;;;;;10396288;28;20251;-61
2022/12/21 10:36:20;;;;;;;8.30;4.73;;;;;;;;;;10397504;28;20211;-61
2022/12/21 10:41:22;;;;;;;7.37;4.37;;;;;;;;;;10391734;28;20294;-61
2022/12/21 10:46:24;;;;;;;6.13;4.10;;;;;;;;;;10395175;28;20271;-61
2022/12/21 10:51:27;;;;;;;4.83;3.87;;;;;;;;;;10403409;28;20208;-61
2022/12/21 10:56:29;;;;;;;6.50;4.50;;;;;;;;;;10401033;28;20192;-62
2022/12/21 11:01:29;;;;;;;3.53;3.13;;;;;;;;;;10397082;28;20220;-59
2022/12/21 11:06:29;;;;;;;4.80;3.40;;;;;;;;;;10382153;28;20200;-61
2022/12/21 11:11:34;;;;;;;3.43;2.80;;;;;;;;;;10400190;28;20289;-62
2022/12/21 11:16:34;;;;;;;2.63;2.07;;;;;;;;;;10385293;28;20208;-62
2022/12/21 11:21:34;;;;;;;3.00;2.60;;;;;;;;;;10401185;28;20698;-61
2022/12/21 11:26:39;;;;;;;3.80;2.77;;;;;;;;;;10401836;28;20533;-60
2022/12/21 11:31:39;;;;;;;2.90;2.33;;;;;;;;;;10391943;28;20208;-61
2022/12/21 11:36:56;;;;;;;3.43;2.50;;;;;;;;;;10377409;28;20727;-59
2022/12/21 11:41:56;;;;;;;2.30;1.60;;;;;;;;;;10372563;28;20359;-61
2022/12/21 11:46:56;;;;;;;3.23;1.90;;;;;;;;;;10397527;28;20242;-61
2022/12/21 11:52:04;;;;;;;2.40;1.93;;;;;;;;;;10401552;28;20963;-62
2022/12/21 11:57:24;;;;;;;3.47;2.30;;;;;;;;;;10401094;28;20231;-62
2022/12/21 12:02:46;;;;;;;2.20;2.00;;;;;;;;;;10397012;28;20701;-62
2022/12/21 12:08:09;;;;;;;6.57;2.73;;;;;;;;;;10399362;28;20200;-63
2022/12/21 12:13:28;;;;;;;3.20;2.43;;;;;;;;;;10454236;23;20247;-65
2022/12/21 12:18:47;;;;;;;3.50;2.60;;;;;;;;;;10441713;28;20203;-63
2022/12/21 12:24:00;;;;;;;3.33;2.10;;;;;;;;;;10463284;28;20575;-64
2022/12/21 12:29:04;;;;;;;4.57;2.70;;;;;;;;;;10445596;28;20701;-65
2022/12/21 12:34:25;;;;;;;2.50;2.30;;;;;;;;;;10446679;28;20226;-65
2022/12/21 12:39:45;;;;;;;2.90;2.40;;;;;;;;;;10446535;28;20682;-65
2022/12/21 12:45:02;;;;;;;4.40;3.17;;;;;;;;;;10445628;28;20560;-64
2022/12/21 12:50:09;;;;;;;2.13;1.93;;;;;;;;;;10446098;28;20207;-64
2022/12/21 12:55:21;;;;;;;2.30;2.00;;;;;;;;;;10446699;28;20650;-64
2022/12/21 13:00:21;;;;;;;2.40;2.20;;;;;;;;;;10445871;28;20219;-65
2022/12/21 13:05:40;;;;;;;11.43;6.13;;;;;;;;;;10443488;28;20573;-64
2022/12/21 13:10:40;;;;;;;3.27;2.50;;;;;;;;;;10443920;28;20278;-62
2022/12/21 13:15:50;;;;;;;15.80;12.40;;;;;;;;;;10445358;28;20604;-62
2022/12/21 13:20:52;;;;;;;3.03;2.50;;;;;;;;;;10444434;28;20219;-64
2022/12/21 13:25:58;;;;;;;2.27;2.07;;;;;;;;;;10445258;28;20246;-65
2022/12/21 13:30:59;;;;;;;2.93;2.40;;;;;;;;;;10444278;28;20224;-63
2022/12/21 13:36:07;;;;;;;3.23;2.50;;;;;;;;;;10442935;28;20553;-61
2022/12/21 13:41:20;;;;;;;3.23;2.83;;;;;;;;;;10444482;28;20597;-62
2022/12/21 13:46:21;;;;;;;5.37;4.47;;;;;;;;;;10444512;28;20199;-63
2022/12/21 13:51:31;;;;;;;7.03;5.27;;;;;;;;;;10443689;28;20220;-63
2022/12/21 13:56:39;;;;;;;11.63;7.13;;;;;;;;;;10402423;28;20196;-63
2022/12/21 14:01:43;;;;;;;4.70;3.70;;;;;;;;;;10442277;28;20245;-61
2022/12/21 14:07:02;;;;;;;4.80;2.90;;;;;;;;;;10437352;28;20196;-60
2022/12/21 14:12:15;;;;;;;5.77;3.67;;;;;;;;;;10438459;28;20621;-62
2022/12/21 14:17:21;;;;;;;4.97;2.97;;;;;;;;;;10441113;28;20188;-62
2022/12/21 14:22:41;;;;;;;3.23;2.50;;;;;;;;;;10439754;28;20261;-60
2022/12/21 14:27:42;;;;;;;3.20;2.33;;;;;;;;;;10446088;28;20199;-62
2022/12/21 14:32:48;;;;;;;3.47;2.53;;;;;;;;;;10417813;28;20232;-62
2022/12/21 14:38:07;;;;;;;11.67;5.57;;;;;;;;;;10419654;28;20643;-63
2022/12/21 14:43:07;;;;;;;6.33;3.67;;;;;;;;;;10443679;28;20783;-63
2022/12/21 14:48:22;;;;;;;4.23;3.37;;;;;;;;;;10443205;28;20290;-63
2022/12/21 14:53:25;;;;;;;1.93;1.83;;;;;;;;;;10443669;28;20285;-62
2022/12/21 14:58:29;;;;;;;4.33;3.30;;;;;;;;;;10443167;28;20825;-63
2022/12/21 15:03:38;;;;;;;8.30;5.40;;;;;;;;;;10442591;28;20206;-63
2022/12/21 15:08:43;;;;;;;2.97;2.00;;;;;;;;;;10444075;28;20271;-63
2022/12/21 15:13:49;;;;;;;18.77;11.93;;;;;;;;;;10442384;28;20252;-63
2022/12/21 15:18:49;;;;;;;7.50;4.83;;;;;;;;;;10443214;28;20202;-62
2022/12/21 15:23:50;;;;;;;5.00;2.87;;;;;;;;;;10444723;28;20212;-63
2022/12/21 15:28:52;;;;;;;5.73;3.50;;;;;;;;;;10443437;28;20225;-63
2022/12/21 15:33:53;;;;;;;3.43;2.40;;;;;;;;;;10437996;28;20842;-63
2022/12/21 15:38:54;;;;;;;2.67;2.37;;;;;;;;;;10432202;28;20278;-61
2022/12/21 15:44:05;;;;;;;1.50;1.40;;;;;;;;;;10435698;28;20251;-62
2022/12/21 15:49:08;;;;;;;2.00;1.47;;;;;;;;;;10441985;28;20420;-64
2022/12/21 15:54:16;;;;;;;2.40;1.43;;;;;;;;;;10442773;28;20215;-63
2022/12/21 15:59:18;;;;;;;3.60;2.30;;;;;;;;;;10441241;28;20192;-64
2022/12/21 16:04:20;;;;;;;2.97;1.57;;;;;;;;;;10441296;28;20176;-63
2022/12/21 16:09:20;;;;;;;2.20;2.00;;;;;;;;;;10442452;28;20541;-62
2022/12/21 16:14:29;;;;;;;3.53;3.17;;;;;;;;;;10440047;28;20231;-63
2022/12/21 16:19:31;;;;;;;3.10;2.07;;;;;;;;;;10440470;28;20219;-63
2022/12/21 16:24:32;;;;;;;3.90;3.57;;;;;;;;;;10434771;28;20641;-63
2022/12/21 16:29:35;;;;;;;3.77;3.47;;;;;;;;;;10439907;28;20208;-64
2022/12/21 16:34:38;;;;;;;3.37;2.73;;;;;;;;;;10439616;28;20220;-63
2022/12/21 16:39:39;;;;;;;2.83;2.47;;;;;;;;;;10441020;28;20645;-63
2022/12/21 16:44:43;;;;;;;2.90;2.50;;;;;;;;;;10438292;28;20192;-62
2022/12/21 16:49:43;;;;;;;1.70;1.53;;;;;;;;;;10436833;28;20223;-62
2022/12/21 16:54:45;;;;;;;2.73;1.90;;;;;;;;;;10440049;28;20211;-60
2022/12/21 16:59:48;;;;;;;2.77;2.47;;;;;;;;;;10440360;28;20208;-63
2022/12/21 17:04:49;;;;;;;1.70;1.60;;;;;;;;;;10438999;28;20184;-61
2022/12/21 17:09:52;;;;;;;5.30;4.17;;;;;;;;;;10437663;28;20231;-62
2022/12/21 17:14:52;;;;;;;2.93;2.57;;;;;;;;;;10439360;28;20273;-61
2022/12/21 17:19:54;;;;;;;2.13;1.50;;;;;;;;;;10438677;28;20289;-64
2022/12/21 17:25:09;;;;;;;5.70;3.90;;;;;;;;;;10438674;28;20274;-62
2022/12/21 17:30:10;;;;;;;13.90;8.27;;;;;;;;;;10445515;28;20667;-61
2022/12/21 17:35:14;;;;;;;2.10;1.90;;;;;;;;;;10447047;28;20210;-64
2022/12/21 17:40:19;;;;;;;3.80;3.00;;;;;;;;;;10447407;28;20713;-64
2022/12/21 17:45:21;;;;;;;6.40;4.83;;;;;;;;;;10446166;28;20191;-65
2022/12/21 17:50:28;;;;;;;3.90;3.50;;;;;;;;;;10448073;28;20630;-64
2022/12/21 17:55:29;;;;;;;4.00;3.70;;;;;;;;;;10446625;28;20716;-64
2022/12/21 18:00:30;;;;;;;1.93;1.83;;;;;;;;;;10453923;28;20223;-64
2022/12/21 18:05:30;;;;;;;1.97;1.77;;;;;;;;;;10454072;28;20183;-64
2022/12/21 18:10:31;;;;;;;1.87;1.67;;;;;;;;;;10451848;28;20302;-64
2022/12/21 18:15:33;;;;;;;2.80;2.00;;;;;;;;;;10452481;28;20180;-64
2022/12/21 18:20:44;;;;;;;6.90;4.27;;;;;;;;;;10452018;28;20204;-64
2022/12/21 18:25:45;;;;;;;4.43;3.63;;;;;;;;;;10470078;22;20822;-63
2022/12/21 18:30:49;;;;;;;4.87;4.37;;;;;;;;;;10413751;28;20230;-62
2022/12/21 18:35:49;;;;;;;4.43;4.00;;;;;;;;;;10412765;28;20212;-62
2022/12/21 18:40:50;;;;;;;2.53;2.33;;;;;;;;;;10413173;28;20200;-62
2022/12/21 18:45:54;;;;;;;2.20;2.10;;;;;;;;;;10412535;28;20254;-62
2022/12/21 18:50:55;;;;;;;2.20;2.00;;;;;;;;;;10412763;28;20216;-63
2022/12/21 18:55:55;;;;;;;1.90;1.80;;;;;;;;;;10411295;28;20216;-62
2022/12/21 19:00:56;;;;;;;2.63;2.30;;;;;;;;;;10410658;28;20206;-63
2022/12/21 19:05:56;;;;;;;4.77;2.80;;;;;;;;;;10409602;28;20219;-62
2022/12/21 19:10:56;;;;;;;2.07;1.90;;;;;;;;;;10409639;28;20224;-62
2022/12/21 19:15:58;;;;;;;2.30;2.00;;;;;;;;;;10410351;28;20291;-62
2022/12/21 19:20:58;;;;;;;1.80;1.70;;;;;;;;;;10410490;28;20216;-62
2022/12/21 19:25:58;;;;;;;2.37;2.17;;;;;;;;;;10409629;28;20326;-61
2022/12/21 19:30:58;;;;;;;1.97;1.87;;;;;;;;;;10411049;28;20231;-61
2022/12/21 19:35:59;;;;;;;2.27;1.90;;;;;;;;;;10408688;28;20237;-60
2022/12/21 19:41:00;;;;;;;2.63;2.43;;;;;;;;;;10409893;28;20196;-61
2022/12/21 19:46:00;;;;;;;2.67;2.33;;;;;;;;;;10410260;28;20874;-62
2022/12/21 19:51:01;;;;;;;1.60;1.50;;;;;;;;;;10410414;28;20221;-60
2022/12/21 19:56:02;;;;;;;1.60;1.50;;;;;;;;;;10410026;28;20204;-61
2022/12/21 20:01:02;;;;;;;1.70;1.50;;;;;;;;;;10409338;28;20196;-60
2022/12/21 20:06:02;;;;;;;2.40;1.80;;;;;;;;;;10408825;28;20270;-63
2022/12/21 20:11:09;;;;;;;2.50;1.77;;;;;;;;;;10408631;28;20319;-62
2022/12/21 20:16:09;;;;;;;1.80;1.70;;;;;;;;;;10408423;28;20266;-63
2022/12/21 20:21:14;;;;;;;3.57;2.40;;;;;;;;;;10407336;28;20269;-62
2022/12/21 20:26:21;;;;;;;1.90;1.77;;;;;;;;;;10407086;28;20232;-63
2022/12/21 20:31:22;;;;;;;5.63;4.07;;;;;;;;;;10407927;28;20312;-63
2022/12/21 20:36:43;;;;;;;2.47;2.17;;;;;;;;;;10406979;28;20687;-63
2022/12/21 20:47:10;;;;;;;1.80;1.70;;;;;;;;;;10406351;28;20699;-60
2022/12/21 20:52:20;;;;;;;2.10;1.90;;;;;;;;;;10406905;28;20244;-62
2022/12/21 20:57:20;;;;;;;1.47;1.37;;;;;;;;;;10406862;28;20212;-62
2022/12/21 21:02:22;;;;;;;1.60;1.50;;;;;;;;;;10404641;28;20188;-61
2022/12/21 21:07:23;;;;;;;2.10;1.90;;;;;;;;;;10405337;28;20209;-62
2022/12/21 21:12:23;;;;;;;1.83;1.63;;;;;;;;;;10406634;28;20215;-62
2022/12/21 21:17:24;;;;;;;4.63;3.57;;;;;;;;;;10405059;28;20610;-59
2022/12/21 21:27:45;;;;;;;5.90;3.97;;;;;;;;;;10405307;28;20236;-61
2022/12/21 21:32:45;;;;;;;2.47;2.27;;;;;;;;;;10404028;28;20220;-59
2022/12/21 21:43:04;;;;;;;1.83;1.73;;;;;;;;;;10404408;28;20224;-62
2022/12/21 21:48:09;;;;;;;2.20;2.00;;;;;;;;;;10402830;28;20284;-62
2022/12/21 21:53:09;;;;;;;1.90;1.80;;;;;;;;;;10404543;28;20259;-62
2022/12/21 21:58:25;;;;;;;1.80;1.70;;;;;;;;;;10404633;28;20275;-63
2022/12/21 22:03:25;;;;;;;1.80;1.70;;;;;;;;;;10403814;28;20196;-64
2022/12/21 22:08:26;;;;;;;2.13;1.80;;;;;;;;;;10405288;28;20207;-62
2022/12/21 22:13:26;;;;;;;2.00;1.80;;;;;;;;;;10406528;28;20211;-63
2022/12/21 22:18:27;;;;;;;1.93;1.80;;;;;;;;;;10405029;28;20266;-62
2022/12/21 22:34:06;;;;;;;1.80;1.70;;;;;;;;;;10405190;28;20703;-60
2022/12/21 22:44:27;;;;;;;2.37;1.60;;;;;;;;;;10408821;28;20431;-63
2022/12/21 22:49:28;;;;;;;4.30;1.60;;;;;;;;;;10412815;28;20272;-62
2022/12/21 22:54:28;;;;;;;1.63;1.47;;;;;;;;;;10412413;28;20216;-63
2022/12/21 22:59:28;;;;;;;1.40;1.30;;;;;;;;;;10412744;28;20184;-63
2022/12/21 23:04:28;;;;;;;1.70;1.60;;;;;;;;;;10411419;28;20728;-63
2022/12/21 23:09:28;;;;;;;1.00;1.00;;;;;;;;;;10413128;28;20195;-64
2022/12/21 23:19:47;;;;;;;1.63;1.50;;;;;;;;;;10412441;28;20193;-63
2022/12/21 23:30:11;;;;;;;1.87;1.77;;;;;;;;;;10411842;28;20197;-61
2022/12/21 23:43:10;;;;;;;1.63;1.53;;;;;;;;;;10410611;28;20228;-64
2022/12/21 23:45:56;;;;;;;2.37;2.00;;;;;;;;;;10409845;28;20574;-63
